BIMM weather

Melgerðismelar Airport
Melgerðismelar, Northeastern Region, Iceland

Public forecast

Using degrees Celsius for public forecast. Weather courtesy of forecast.io.

Closest aviation weather report (METAR) to Melgerðismelar Airport

Closest report is Akureyri Airport, 10.9 nm (20.1 km) NNE. Retrieved 2020/07/14 06:00 UTC (58 minutes ago):

BIAR 140600Z VRB02KT 9999 OVC005 10/09 Q1010

Closest aviation forecast (TAF) to Melgerðismelar Airport

Closest forecast is Akureyri Airport, 10.9 nm (20.1 km) NNE. Retrieved 2020/07/14 06:09 UTC (49 minutes ago):

TAF BIAR 140408Z 1406/1506 34008KT 9999 SCT010 BKN025 OVC045 TX15/1413Z TN09/1406Z PROB40 1406/1410 3000 BR OVC005 TEMPO 1411/1420 SHRA BKN012CB